sensor_id;sensor_type;location;lat;lon;timestamp;pressure;altitude;pressure_sealevel;temperature;humidity
84051;BME280;74137;50.136;19.040;2024-02-26T00:00:53;97902.25;;;1.09;69.55
84051;BME280;74137;50.136;19.040;2024-02-26T00:03:46;97899.10;;;1.05;69.64
84051;BME280;74137;50.136;19.040;2024-02-26T00:06:18;97893.59;;;0.99;69.69
84051;BME280;74137;50.136;19.040;2024-02-26T00:08:48;97896.13;;;0.96;69.89
84051;BME280;74137;50.136;19.040;2024-02-26T00:11:19;97898.20;;;0.90;69.72
84051;BME280;74137;50.136;19.040;2024-02-26T00:13:47;97894.09;;;0.84;69.76
84051;BME280;74137;50.136;19.040;2024-02-26T00:16:18;97893.93;;;0.78;69.79
84051;BME280;74137;50.136;19.040;2024-02-26T00:18:46;97891.36;;;0.72;70.19
84051;BME280;74137;50.136;19.040;2024-02-26T00:21:20;97892.23;;;0.66;70.05
84051;BME280;74137;50.136;19.040;2024-02-26T00:23:54;97897.09;;;0.61;70.18
84051;BME280;74137;50.136;19.040;2024-02-26T00:26:27;97897.91;;;0.56;70.19
84051;BME280;74137;50.136;19.040;2024-02-26T00:28:58;97895.09;;;0.52;70.67
84051;BME280;74137;50.136;19.040;2024-02-26T00:31:26;97900.29;;;0.52;71.06
84051;BME280;74137;50.136;19.040;2024-02-26T00:33:57;97901.36;;;0.51;70.99
84051;BME280;74137;50.136;19.040;2024-02-26T00:36:27;97905.75;;;0.48;70.71
84051;BME280;74137;50.136;19.040;2024-02-26T00:38:58;97907.54;;;0.47;70.98
84051;BME280;74137;50.136;19.040;2024-02-26T00:41:26;97905.06;;;0.44;70.86
84051;BME280;74137;50.136;19.040;2024-02-26T00:43:55;97906.96;;;0.43;71.03
84051;BME280;74137;50.136;19.040;2024-02-26T00:46:23;97904.00;;;0.44;71.20
84051;BME280;74137;50.136;19.040;2024-02-26T00:48:53;97897.88;;;0.47;71.08
84051;BME280;74137;50.136;19.040;2024-02-26T00:51:22;97897.48;;;0.48;70.79
84051;BME280;74137;50.136;19.040;2024-02-26T00:53:57;97899.08;;;0.52;70.94
84051;BME280;74137;50.136;19.040;2024-02-26T00:56:26;97897.79;;;0.54;70.95
84051;BME280;74137;50.136;19.040;2024-02-26T00:58:58;97903.54;;;0.53;70.82
84051;BME280;74137;50.136;19.040;2024-02-26T01:01:29;97898.01;;;0.53;71.43
84051;BME280;74137;50.136;19.040;2024-02-26T01:03:57;97902.77;;;0.55;71.33
84051;BME280;74137;50.136;19.040;2024-02-26T01:06:25;97903.80;;;0.56;71.43
84051;BME280;74137;50.136;19.040;2024-02-26T01:08:56;97903.30;;;0.55;71.18
84051;BME280;74137;50.136;19.040;2024-02-26T01:11:25;97899.27;;;0.51;71.29
84051;BME280;74137;50.136;19.040;2024-02-26T01:13:53;97897.44;;;0.49;71.55
84051;BME280;74137;50.136;19.040;2024-02-26T01:16:24;97893.16;;;0.48;71.37
84051;BME280;74137;50.136;19.040;2024-02-26T01:18:53;97894.52;;;0.48;71.59
84051;BME280;74137;50.136;19.040;2024-02-26T01:21:21;97892.23;;;0.50;71.55
84051;BME280;74137;50.136;19.040;2024-02-26T01:23:52;97889.80;;;0.50;71.82
84051;BME280;74137;50.136;19.040;2024-02-26T01:26:22;97893.09;;;0.50;71.63
84051;BME280;74137;50.136;19.040;2024-02-26T01:28:53;97895.58;;;0.48;71.68
84051;BME280;74137;50.136;19.040;2024-02-26T01:31:22;97895.45;;;0.47;71.83
84051;BME280;74137;50.136;19.040;2024-02-26T01:33:53;97893.32;;;0.43;71.77
84051;BME280;74137;50.136;19.040;2024-02-26T01:36:23;97892.44;;;0.43;72.04
84051;BME280;74137;50.136;19.040;2024-02-26T01:38:52;97891.79;;;0.48;72.14
84051;BME280;74137;50.136;19.040;2024-02-26T01:41:20;97890.35;;;0.49;72.07
84051;BME280;74137;50.136;19.040;2024-02-26T01:43:48;97891.85;;;0.51;72.10
84051;BME280;74137;50.136;19.040;2024-02-26T01:46:17;97886.48;;;0.52;71.91
84051;BME280;74137;50.136;19.040;2024-02-26T01:48:48;97884.92;;;0.52;71.90
84051;BME280;74137;50.136;19.040;2024-02-26T01:51:18;97889.11;;;0.50;71.46
84051;BME280;74137;50.136;19.040;2024-02-26T01:53:47;97893.46;;;0.49;71.47
84051;BME280;74137;50.136;19.040;2024-02-26T01:56:16;97893.70;;;0.47;71.59
84051;BME280;74137;50.136;19.040;2024-02-26T01:58:48;97893.38;;;0.46;72.11
84051;BME280;74137;50.136;19.040;2024-02-26T02:01:21;97900.14;;;0.46;72.14
84051;BME280;74137;50.136;19.040;2024-02-26T02:03:51;97898.41;;;0.46;71.88
84051;BME280;74137;50.136;19.040;2024-02-26T02:06:21;97897.02;;;0.46;72.34
84051;BME280;74137;50.136;19.040;2024-02-26T02:08:51;97893.92;;;0.46;72.24
84051;BME280;74137;50.136;19.040;2024-02-26T02:11:21;97895.14;;;0.45;72.09
84051;BME280;74137;50.136;19.040;2024-02-26T02:13:49;97896.88;;;0.45;72.01
84051;BME280;74137;50.136;19.040;2024-02-26T02:16:18;97890.01;;;0.44;71.93
84051;BME280;74137;50.136;19.040;2024-02-26T02:18:46;97890.55;;;0.43;72.03
84051;BME280;74137;50.136;19.040;2024-02-26T02:21:14;97889.73;;;0.42;72.06
84051;BME280;74137;50.136;19.040;2024-02-26T02:23:47;97886.21;;;0.39;71.87
84051;BME280;74137;50.136;19.040;2024-02-26T02:26:17;97890.44;;;0.35;71.96
84051;BME280;74137;50.136;19.040;2024-02-26T02:28:49;97891.96;;;0.31;72.04
84051;BME280;74137;50.136;19.040;2024-02-26T02:31:22;97889.63;;;0.28;72.05
84051;BME280;74137;50.136;19.040;2024-02-26T02:33:51;97893.44;;;0.27;71.99
84051;BME280;74137;50.136;19.040;2024-02-26T02:36:21;97897.16;;;0.25;71.87
84051;BME280;74137;50.136;19.040;2024-02-26T02:38:52;97892.98;;;0.20;71.98
84051;BME280;74137;50.136;19.040;2024-02-26T02:41:25;97896.59;;;0.15;72.09
84051;BME280;74137;50.136;19.040;2024-02-26T02:43:58;97902.00;;;0.07;71.78
84051;BME280;74137;50.136;19.040;2024-02-26T02:46:26;97898.72;;;0.01;72.02
84051;BME280;74137;50.136;19.040;2024-02-26T02:48:57;97893.35;;;-0.05;71.70
84051;BME280;74137;50.136;19.040;2024-02-26T02:51:25;97895.02;;;-0.08;72.09
84051;BME280;74137;50.136;19.040;2024-02-26T02:53:54;97898.34;;;-0.10;72.46
84051;BME280;74137;50.136;19.040;2024-02-26T02:56:22;97896.48;;;-0.11;72.44
84051;BME280;74137;50.136;19.040;2024-02-26T02:58:50;97895.76;;;-0.10;72.52
84051;BME280;74137;50.136;19.040;2024-02-26T03:01:18;97890.02;;;-0.09;72.73
84051;BME280;74137;50.136;19.040;2024-02-26T03:03:49;97886.84;;;-0.12;72.70
84051;BME280;74137;50.136;19.040;2024-02-26T03:06:20;97883.59;;;-0.12;72.59
84051;BME280;74137;50.136;19.040;2024-02-26T03:08:49;97872.83;;;-0.16;72.53
84051;BME280;74137;50.136;19.040;2024-02-26T03:11:17;97874.87;;;-0.22;72.62
84051;BME280;74137;50.136;19.040;2024-02-26T03:13:45;97878.55;;;-0.23;72.85
84051;BME280;74137;50.136;19.040;2024-02-26T03:16:18;97883.38;;;-0.24;73.07
84051;BME280;74137;50.136;19.040;2024-02-26T03:18:46;97887.57;;;-0.25;73.56
84051;BME280;74137;50.136;19.040;2024-02-26T03:21:18;97881.73;;;-0.26;73.07
84051;BME280;74137;50.136;19.040;2024-02-26T03:23:53;97881.08;;;-0.27;73.27
84051;BME280;74137;50.136;19.040;2024-02-26T03:26:23;97876.08;;;-0.28;73.40
84051;BME280;74137;50.136;19.040;2024-02-26T03:28:54;97872.60;;;-0.27;73.24
84051;BME280;74137;50.136;19.040;2024-02-26T03:31:24;97868.58;;;-0.31;73.84
84051;BME280;74137;50.136;19.040;2024-02-26T03:33:55;97868.13;;;-0.33;73.82
84051;BME280;74137;50.136;19.040;2024-02-26T03:36:25;97865.58;;;-0.34;73.82
84051;BME280;74137;50.136;19.040;2024-02-26T03:38:56;97861.69;;;-0.38;73.92
84051;BME280;74137;50.136;19.040;2024-02-26T03:41:26;97858.03;;;-0.36;73.83
84051;BME280;74137;50.136;19.040;2024-02-26T03:43:57;97856.95;;;-0.34;73.91
84051;BME280;74137;50.136;19.040;2024-02-26T03:46:29;97854.73;;;-0.34;73.90
84051;BME280;74137;50.136;19.040;2024-02-26T03:48:57;97856.61;;;-0.34;74.07
84051;BME280;74137;50.136;19.040;2024-02-26T03:51:28;97850.92;;;-0.34;74.13
84051;BME280;74137;50.136;19.040;2024-02-26T03:54:02;97851.73;;;-0.33;74.39
84051;BME280;74137;50.136;19.040;2024-02-26T03:56:36;97848.59;;;-0.31;74.20
84051;BME280;74137;50.136;19.040;2024-02-26T03:59:04;97845.48;;;-0.31;74.09
84051;BME280;74137;50.136;19.040;2024-02-26T04:01:32;97841.11;;;-0.29;73.95
84051;BME280;74137;50.136;19.040;2024-02-26T04:04:06;97844.34;;;-0.27;74.23
84051;BME280;74137;50.136;19.040;2024-02-26T04:06:34;97842.63;;;-0.28;73.72
84051;BME280;74137;50.136;19.040;2024-02-26T04:09:02;97839.27;;;-0.31;73.75
84051;BME280;74137;50.136;19.040;2024-02-26T04:11:31;97842.64;;;-0.35;73.29
84051;BME280;74137;50.136;19.040;2024-02-26T04:14:02;97838.58;;;-0.38;73.20
84051;BME280;74137;50.136;19.040;2024-02-26T04:16:31;97837.77;;;-0.39;73.24
84051;BME280;74137;50.136;19.040;2024-02-26T04:19:01;97837.30;;;-0.41;73.36
84051;BME280;74137;50.136;19.040;2024-02-26T04:21:30;97832.34;;;-0.42;73.23
84051;BME280;74137;50.136;19.040;2024-02-26T04:23:58;97833.90;;;-0.43;73.55
84051;BME280;74137;50.136;19.040;2024-02-26T04:26:32;97833.64;;;-0.45;73.42
84051;BME280;74137;50.136;19.040;2024-02-26T04:29:00;97834.44;;;-0.49;73.53
84051;BME280;74137;50.136;19.040;2024-02-26T04:31:31;97831.62;;;-0.53;73.23
84051;BME280;74137;50.136;19.040;2024-02-26T04:34:01;97830.96;;;-0.55;73.44
84051;BME280;74137;50.136;19.040;2024-02-26T04:36:34;97827.36;;;-0.55;73.43
84051;BME280;74137;50.136;19.040;2024-02-26T04:39:07;97823.91;;;-0.55;73.51
84051;BME280;74137;50.136;19.040;2024-02-26T04:41:35;97820.98;;;-0.55;73.72
84051;BME280;74137;50.136;19.040;2024-02-26T04:44:05;97819.94;;;-0.54;73.95
84051;BME280;74137;50.136;19.040;2024-02-26T04:46:36;97817.18;;;-0.55;73.66
84051;BME280;74137;50.136;19.040;2024-02-26T04:49:06;97816.02;;;-0.56;73.70
84051;BME280;74137;50.136;19.040;2024-02-26T04:51:35;97816.25;;;-0.58;73.99
84051;BME280;74137;50.136;19.040;2024-02-26T04:54:03;97814.25;;;-0.61;73.76
84051;BME280;74137;50.136;19.040;2024-02-26T04:56:31;97818.11;;;-0.64;74.02
84051;BME280;74137;50.136;19.040;2024-02-26T04:59:06;97814.56;;;-0.66;73.89
84051;BME280;74137;50.136;19.040;2024-02-26T05:01:35;97811.70;;;-0.68;74.00
84051;BME280;74137;50.136;19.040;2024-02-26T05:04:04;97812.63;;;-0.71;73.47
84051;BME280;74137;50.136;19.040;2024-02-26T05:06:36;97817.67;;;-0.72;73.76
84051;BME280;74137;50.136;19.040;2024-02-26T05:09:07;97818.58;;;-0.74;73.75
84051;BME280;74137;50.136;19.040;2024-02-26T05:11:38;97818.23;;;-0.73;73.83
84051;BME280;74137;50.136;19.040;2024-02-26T05:14:12;97819.94;;;-0.73;73.50
84051;BME280;74137;50.136;19.040;2024-02-26T05:16:40;97823.92;;;-0.74;73.61
84051;BME280;74137;50.136;19.040;2024-02-26T05:19:08;97821.38;;;-0.75;73.66
84051;BME280;74137;50.136;19.040;2024-02-26T05:21:39;97825.74;;;-0.78;73.78
84051;BME280;74137;50.136;19.040;2024-02-26T05:24:08;97827.52;;;-0.79;73.46
84051;BME280;74137;50.136;19.040;2024-02-26T05:26:36;97828.80;;;-0.82;73.45
84051;BME280;74137;50.136;19.040;2024-02-26T05:29:04;97828.62;;;-0.82;73.59
84051;BME280;74137;50.136;19.040;2024-02-26T05:31:32;97828.96;;;-0.82;73.73
84051;BME280;74137;50.136;19.040;2024-02-26T05:34:05;97826.67;;;-0.80;73.96
84051;BME280;74137;50.136;19.040;2024-02-26T05:36:38;97829.36;;;-0.78;73.54
84051;BME280;74137;50.136;19.040;2024-02-26T05:39:09;97827.59;;;-0.76;73.68
84051;BME280;74137;50.136;19.040;2024-02-26T05:41:45;97828.78;;;-0.75;73.53
84051;BME280;74137;50.136;19.040;2024-02-26T05:44:16;97830.86;;;-0.76;73.43
84051;BME280;74137;50.136;19.040;2024-02-26T05:46:46;97831.41;;;-0.77;73.75
84051;BME280;74137;50.136;19.040;2024-02-26T05:49:17;97837.06;;;-0.75;73.73
84051;BME280;74137;50.136;19.040;2024-02-26T05:51:45;97836.99;;;-0.73;73.87
84051;BME280;74137;50.136;19.040;2024-02-26T05:54:16;97838.69;;;-0.72;74.00
84051;BME280;74137;50.136;19.040;2024-02-26T05:56:46;97842.72;;;-0.68;74.07
84051;BME280;74137;50.136;19.040;2024-02-26T05:59:14;97845.88;;;-0.64;74.38
84051;BME280;74137;50.136;19.040;2024-02-26T06:01:43;97850.77;;;-0.60;74.10
84051;BME280;74137;50.136;19.040;2024-02-26T06:04:18;97850.16;;;-0.56;73.99
84051;BME280;74137;50.136;19.040;2024-02-26T06:06:51;97853.64;;;-0.52;73.88
84051;BME280;74137;50.136;19.040;2024-02-26T06:09:23;97853.09;;;-0.44;73.94
84051;BME280;74137;50.136;19.040;2024-02-26T06:11:53;97849.45;;;-0.37;74.13
84051;BME280;74137;50.136;19.040;2024-02-26T06:14:22;97847.02;;;-0.30;74.33
84051;BME280;74137;50.136;19.040;2024-02-26T06:16:51;97850.70;;;-0.21;74.37
84051;BME280;74137;50.136;19.040;2024-02-26T06:19:22;97853.58;;;-0.13;74.46
84051;BME280;74137;50.136;19.040;2024-02-26T06:21:55;97852.64;;;-0.05;74.38
84051;BME280;74137;50.136;19.040;2024-02-26T06:24:25;97854.07;;;0.05;74.39
84051;BME280;74137;50.136;19.040;2024-02-26T06:26:54;97855.45;;;0.17;74.52
84051;BME280;74137;50.136;19.040;2024-02-26T06:29:25;97858.73;;;0.28;74.62
84051;BME280;74137;50.136;19.040;2024-02-26T06:31:53;97859.13;;;0.37;74.54
84051;BME280;74137;50.136;19.040;2024-02-26T06:34:22;97860.70;;;0.48;74.63
84051;BME280;74137;50.136;19.040;2024-02-26T06:36:51;97865.77;;;0.57;74.46
84051;BME280;74137;50.136;19.040;2024-02-26T06:39:24;97862.41;;;0.65;74.44
84051;BME280;74137;50.136;19.040;2024-02-26T06:41:55;97863.85;;;0.73;74.34
84051;BME280;74137;50.136;19.040;2024-02-26T06:44:30;97863.37;;;0.83;74.62
84051;BME280;74137;50.136;19.040;2024-02-26T06:47:04;97863.83;;;0.95;74.53
84051;BME280;74137;50.136;19.040;2024-02-26T06:49:40;97862.88;;;1.08;74.74
84051;BME280;74137;50.136;19.040;2024-02-26T06:52:11;97862.95;;;1.21;74.83
84051;BME280;74137;50.136;19.040;2024-02-26T06:55:05;97859.41;;;1.33;74.46
84051;BME280;74137;50.136;19.040;2024-02-26T06:57:36;97864.81;;;1.47;74.53
84051;BME280;74137;50.136;19.040;2024-02-26T07:00:07;97870.34;;;1.62;74.77
84051;BME280;74137;50.136;19.040;2024-02-26T07:02:39;97868.77;;;1.76;74.71
84051;BME280;74137;50.136;19.040;2024-02-26T07:05:11;97871.74;;;1.89;74.76
84051;BME280;74137;50.136;19.040;2024-02-26T07:07:40;97874.94;;;2.06;74.92
84051;BME280;74137;50.136;19.040;2024-02-26T07:10:09;97876.55;;;2.22;74.86
84051;BME280;74137;50.136;19.040;2024-02-26T07:12:45;97872.13;;;2.38;74.78
84051;BME280;74137;50.136;19.040;2024-02-26T07:15:16;97874.52;;;2.53;74.78
84051;BME280;74137;50.136;19.040;2024-02-26T07:17:50;97869.21;;;2.64;74.64
84051;BME280;74137;50.136;19.040;2024-02-26T07:20:21;97869.67;;;2.78;74.60
84051;BME280;74137;50.136;19.040;2024-02-26T07:22:49;97865.60;;;2.93;74.42
84051;BME280;74137;50.136;19.040;2024-02-26T07:25:19;97867.08;;;3.08;74.37
84051;BME280;74137;50.136;19.040;2024-02-26T07:27:49;97868.86;;;3.19;74.26
84051;BME280;74137;50.136;19.040;2024-02-26T07:30:19;97867.58;;;3.29;74.24
84051;BME280;74137;50.136;19.040;2024-02-26T07:32:52;97875.20;;;3.41;73.87
84051;BME280;74137;50.136;19.040;2024-02-26T07:35:26;97874.73;;;3.52;73.66
84051;BME280;74137;50.136;19.040;2024-02-26T07:37:59;97869.31;;;3.61;73.51
84051;BME280;74137;50.136;19.040;2024-02-26T07:40:27;97869.06;;;3.71;73.54
84051;BME280;74137;50.136;19.040;2024-02-26T07:42:58;97871.55;;;3.81;73.43
84051;BME280;74137;50.136;19.040;2024-02-26T07:45:28;97869.66;;;3.93;73.29
84051;BME280;74137;50.136;19.040;2024-02-26T07:47:59;97863.91;;;4.04;73.22
84051;BME280;74137;50.136;19.040;2024-02-26T07:50:27;97861.27;;;4.16;72.96
84051;BME280;74137;50.136;19.040;2024-02-26T07:52:57;97861.47;;;4.31;73.23
84051;BME280;74137;50.136;19.040;2024-02-26T07:55:30;97861.19;;;4.51;73.07
84051;BME280;74137;50.136;19.040;2024-02-26T07:58:06;97863.24;;;4.74;73.02
84051;BME280;74137;50.136;19.040;2024-02-26T08:00:36;97858.63;;;4.97;73.07
84051;BME280;74137;50.136;19.040;2024-02-26T08:03:04;97866.89;;;5.17;72.88
84051;BME280;74137;50.136;19.040;2024-02-26T08:05:33;97867.02;;;5.34;72.93
84051;BME280;74137;50.136;19.040;2024-02-26T08:08:04;97867.55;;;5.51;72.70
84051;BME280;74137;50.136;19.040;2024-02-26T08:10:35;97864.34;;;5.66;72.41
84051;BME280;74137;50.136;19.040;2024-02-26T08:13:05;97862.24;;;5.83;72.49
84051;BME280;74137;50.136;19.040;2024-02-26T08:15:38;97863.85;;;5.99;72.48
84051;BME280;74137;50.136;19.040;2024-02-26T08:18:12;97863.95;;;6.17;72.46
84051;BME280;74137;50.136;19.040;2024-02-26T08:20:46;97859.23;;;6.33;72.57
84051;BME280;74137;50.136;19.040;2024-02-26T08:23:14;97856.77;;;6.49;72.33
84051;BME280;74137;50.136;19.040;2024-02-26T08:25:45;97858.34;;;6.65;72.13
84051;BME280;74137;50.136;19.040;2024-02-26T08:28:16;97859.41;;;6.80;72.14
84051;BME280;74137;50.136;19.040;2024-02-26T08:30:48;97860.51;;;6.94;71.89
84051;BME280;74137;50.136;19.040;2024-02-26T08:33:21;97859.48;;;7.09;71.81
84051;BME280;74137;50.136;19.040;2024-02-26T08:35:49;97858.45;;;7.21;71.37
84051;BME280;74137;50.136;19.040;2024-02-26T08:38:17;97857.37;;;7.33;71.58
84051;BME280;74137;50.136;19.040;2024-02-26T08:40:46;97859.63;;;7.45;71.03
84051;BME280;74137;50.136;19.040;2024-02-26T08:43:16;97858.41;;;7.57;71.00
84051;BME280;74137;50.136;19.040;2024-02-26T08:45:44;97860.40;;;7.67;70.49
84051;BME280;74137;50.136;19.040;2024-02-26T08:48:13;97860.75;;;7.76;70.37
84051;BME280;74137;50.136;19.040;2024-02-26T08:50:43;97862.59;;;7.86;70.30
84051;BME280;74137;50.136;19.040;2024-02-26T08:53:14;97862.30;;;7.99;69.99
84051;BME280;74137;50.136;19.040;2024-02-26T08:55:54;97861.55;;;8.17;70.02
84051;BME280;74137;50.136;19.040;2024-02-26T08:58:22;97861.66;;;8.35;69.72
84051;BME280;74137;50.136;19.040;2024-02-26T09:00:53;97860.38;;;8.55;69.28
84051;BME280;74137;50.136;19.040;2024-02-26T09:03:26;97859.64;;;8.75;68.84
84051;BME280;74137;50.136;19.040;2024-02-26T09:06:00;97860.34;;;8.94;68.54
84051;BME280;74137;50.136;19.040;2024-02-26T09:08:31;97861.61;;;9.15;68.05
84051;BME280;74137;50.136;19.040;2024-02-26T09:11:06;97856.71;;;9.41;67.64
84051;BME280;74137;50.136;19.040;2024-02-26T09:13:38;97854.52;;;9.70;67.35
84051;BME280;74137;50.136;19.040;2024-02-26T09:16:11;97856.01;;;9.94;66.78
84051;BME280;74137;50.136;19.040;2024-02-26T09:18:40;97847.67;;;10.16;65.63
84051;BME280;74137;50.136;19.040;2024-02-26T09:21:10;97837.91;;;10.32;64.63
84051;BME280;74137;50.136;19.040;2024-02-26T09:23:41;97842.17;;;10.47;64.29
84051;BME280;74137;50.136;19.040;2024-02-26T09:26:11;97844.89;;;10.58;63.98
84051;BME280;74137;50.136;19.040;2024-02-26T09:28:42;97847.21;;;10.69;63.51
84051;BME280;74137;50.136;19.040;2024-02-26T09:31:14;97846.16;;;10.81;63.06
84051;BME280;74137;50.136;19.040;2024-02-26T09:33:46;97842.01;;;10.90;62.83
84051;BME280;74137;50.136;19.040;2024-02-26T09:36:15;97844.48;;;10.99;62.43
84051;BME280;74137;50.136;19.040;2024-02-26T09:38:46;97839.75;;;11.06;62.25
84051;BME280;74137;50.136;19.040;2024-02-26T09:41:28;97843.62;;;11.13;61.91
84051;BME280;74137;50.136;19.040;2024-02-26T09:44:04;97848.25;;;11.17;61.69
84051;BME280;74137;50.136;19.040;2024-02-26T09:46:35;97848.20;;;11.25;61.90
84051;BME280;74137;50.136;19.040;2024-02-26T09:49:08;97841.10;;;11.33;61.53
84051;BME280;74137;50.136;19.040;2024-02-26T09:51:38;97842.91;;;11.39;61.04
84051;BME280;74137;50.136;19.040;2024-02-26T09:54:09;97844.27;;;11.47;61.33
84051;BME280;74137;50.136;19.040;2024-02-26T09:56:39;97842.85;;;11.56;61.08
84051;BME280;74137;50.136;19.040;2024-02-26T09:59:27;97837.96;;;11.67;60.42
84051;BME280;74137;50.136;19.040;2024-02-26T10:01:56;97838.91;;;11.77;60.30
84051;BME280;74137;50.136;19.040;2024-02-26T10:04:30;97836.01;;;11.92;60.67
84051;BME280;74137;50.136;19.040;2024-02-26T10:06:59;97839.28;;;12.09;60.05
84051;BME280;74137;50.136;19.040;2024-02-26T10:09:29;97840.89;;;12.22;59.66
84051;BME280;74137;50.136;19.040;2024-02-26T10:12:02;97831.83;;;12.37;59.45
84051;BME280;74137;50.136;19.040;2024-02-26T10:14:33;97834.67;;;12.49;58.74
84051;BME280;74137;50.136;19.040;2024-02-26T10:17:01;97830.88;;;12.62;58.13
84051;BME280;74137;50.136;19.040;2024-02-26T10:19:34;97830.59;;;12.69;57.75
84051;BME280;74137;50.136;19.040;2024-02-26T10:22:06;97831.23;;;12.75;57.46
84051;BME280;74137;50.136;19.040;2024-02-26T10:24:36;97828.82;;;12.79;56.80
84051;BME280;74137;50.136;19.040;2024-02-26T10:27:05;97823.03;;;12.83;56.68
84051;BME280;74137;50.136;19.040;2024-02-26T10:29:36;97824.57;;;12.83;56.61
84051;BME280;74137;50.136;19.040;2024-02-26T10:32:04;97824.55;;;12.88;56.68
84051;BME280;74137;50.136;19.040;2024-02-26T10:34:35;97824.85;;;12.95;56.75
84051;BME280;74137;50.136;19.040;2024-02-26T10:37:06;97822.94;;;13.03;56.74
84051;BME280;74137;50.136;19.040;2024-02-26T10:39:36;97823.16;;;13.11;56.72
84051;BME280;74137;50.136;19.040;2024-02-26T10:42:12;97823.13;;;13.18;56.57
84051;BME280;74137;50.136;19.040;2024-02-26T10:44:40;97822.43;;;13.26;56.58
84051;BME280;74137;50.136;19.040;2024-02-26T10:47:11;97823.52;;;13.37;56.85
84051;BME280;74137;50.136;19.040;2024-02-26T10:49:45;97825.44;;;13.47;56.71
84051;BME280;74137;50.136;19.040;2024-02-26T10:52:15;97829.44;;;13.56;56.56
84051;BME280;74137;50.136;19.040;2024-02-26T10:54:44;97829.64;;;13.65;56.08
84051;BME280;74137;50.136;19.040;2024-02-26T10:57:19;97833.00;;;13.71;55.94
84051;BME280;74137;50.136;19.040;2024-02-26T10:59:53;97829.70;;;13.78;55.95
84051;BME280;74137;50.136;19.040;2024-02-26T11:02:22;97830.56;;;13.84;55.93
84051;BME280;74137;50.136;19.040;2024-02-26T11:04:51;97829.27;;;13.89;55.69
84051;BME280;74137;50.136;19.040;2024-02-26T11:07:22;97827.17;;;13.93;55.72
84051;BME280;74137;50.136;19.040;2024-02-26T11:09:55;97822.90;;;13.98;55.50
84051;BME280;74137;50.136;19.040;2024-02-26T11:12:27;97821.95;;;14.02;55.23
84051;BME280;74137;50.136;19.040;2024-02-26T11:14:59;97818.27;;;14.02;55.05
84051;BME280;74137;50.136;19.040;2024-02-26T11:17:29;97817.21;;;14.02;54.90
84051;BME280;74137;50.136;19.040;2024-02-26T11:20:05;97814.70;;;14.03;54.99
84051;BME280;74137;50.136;19.040;2024-02-26T11:22:37;97809.31;;;14.06;55.15
84051;BME280;74137;50.136;19.040;2024-02-26T11:25:08;97807.71;;;14.10;55.07
84051;BME280;74137;50.136;19.040;2024-02-26T11:27:43;97806.41;;;14.15;54.81
84051;BME280;74137;50.136;19.040;2024-02-26T11:30:15;97804.16;;;14.18;54.21
84051;BME280;74137;50.136;19.040;2024-02-26T11:32:46;97809.52;;;14.19;54.15
84051;BME280;74137;50.136;19.040;2024-02-26T11:35:16;97802.72;;;14.20;53.92
84051;BME280;74137;50.136;19.040;2024-02-26T11:37:58;97804.45;;;14.23;54.04
84051;BME280;74137;50.136;19.040;2024-02-26T11:40:31;97804.58;;;14.26;54.20
84051;BME280;74137;50.136;19.040;2024-02-26T11:43:04;97803.15;;;14.28;54.04
84051;BME280;74137;50.136;19.040;2024-02-26T11:48:17;97802.51;;;14.27;53.40
84051;BME280;74137;50.136;19.040;2024-02-26T11:50:52;97800.88;;;14.24;53.59
84051;BME280;74137;50.136;19.040;2024-02-26T11:53:29;97803.13;;;14.20;53.71
84051;BME280;74137;50.136;19.040;2024-02-26T11:58:53;97805.58;;;14.06;53.94
84051;BME280;74137;50.136;19.040;2024-02-26T12:07:06;97805.45;;;13.77;53.47
84051;BME280;74137;50.136;19.040;2024-02-26T12:09:40;97803.54;;;13.66;53.31
84051;BME280;74137;50.136;19.040;2024-02-26T12:13:29;97802.95;;;13.47;53.25
84051;BME280;74137;50.136;19.040;2024-02-26T12:32:47;97800.97;;;13.04;54.90
84051;BME280;74137;50.136;19.040;2024-02-26T12:35:18;97801.42;;;12.99;55.46
84051;BME280;74137;50.136;19.040;2024-02-26T12:37:49;97800.06;;;12.96;55.56
84051;BME280;74137;50.136;19.040;2024-02-26T12:40:19;97805.05;;;12.96;55.83
84051;BME280;74137;50.136;19.040;2024-02-26T12:42:50;97801.58;;;12.95;56.02
84051;BME280;74137;50.136;19.040;2024-02-26T12:46:37;97804.66;;;12.94;56.08
84051;BME280;74137;50.136;19.040;2024-02-26T12:49:08;97802.73;;;12.94;56.35
84051;BME280;74137;50.136;19.040;2024-02-26T12:51:37;97803.41;;;12.94;56.61
84051;BME280;74137;50.136;19.040;2024-02-26T12:54:09;97803.91;;;12.95;56.38
84051;BME280;74137;50.136;19.040;2024-02-26T12:56:37;97804.93;;;12.95;56.71
84051;BME280;74137;50.136;19.040;2024-02-26T12:59:08;97805.35;;;12.94;56.87
84051;BME280;74137;50.136;19.040;2024-02-26T13:01:37;97807.86;;;12.92;56.90
84051;BME280;74137;50.136;19.040;2024-02-26T13:04:06;97802.63;;;12.91;57.00
84051;BME280;74137;50.136;19.040;2024-02-26T13:06:35;97805.45;;;12.91;56.96
84051;BME280;74137;50.136;19.040;2024-02-26T13:09:04;97802.94;;;12.92;57.29
84051;BME280;74137;50.136;19.040;2024-02-26T13:11:39;97801.35;;;12.92;56.90
84051;BME280;74137;50.136;19.040;2024-02-26T13:14:21;97799.13;;;12.93;56.82
84051;BME280;74137;50.136;19.040;2024-02-26T13:17:00;97799.01;;;12.94;56.57
84051;BME280;74137;50.136;19.040;2024-02-26T13:19:31;97800.48;;;12.94;56.63
84051;BME280;74137;50.136;19.040;2024-02-26T13:22:05;97801.28;;;12.95;56.51
84051;BME280;74137;50.136;19.040;2024-02-26T13:24:35;97801.65;;;12.94;56.62
84051;BME280;74137;50.136;19.040;2024-02-26T13:27:07;97803.96;;;12.92;56.69
84051;BME280;74137;50.136;19.040;2024-02-26T13:29:37;97801.06;;;12.90;56.83
84051;BME280;74137;50.136;19.040;2024-02-26T13:32:06;97798.70;;;12.89;56.86
84051;BME280;74137;50.136;19.040;2024-02-26T13:34:35;97801.46;;;12.92;56.83
84051;BME280;74137;50.136;19.040;2024-02-26T13:37:05;97801.36;;;12.96;56.72
84051;BME280;74137;50.136;19.040;2024-02-26T13:39:34;97800.43;;;12.98;56.58
84051;BME280;74137;50.136;19.040;2024-02-26T13:42:08;97796.06;;;13.02;56.88
84051;BME280;74137;50.136;19.040;2024-02-26T13:44:37;97801.70;;;13.06;56.85